sensor_id;sensor_type;location;lat;lon;timestamp;temperature;humidity
18388;DHT22;9320;50.256;19.026;2023-06-19T00:01:21;16.80;99.90
18388;DHT22;9320;50.256;19.026;2023-06-19T00:03:49;16.80;99.90
18388;DHT22;9320;50.256;19.026;2023-06-19T00:06:17;16.80;99.90
18388;DHT22;9320;50.256;19.026;2023-06-19T00:08:45;16.80;99.90
18388;DHT22;9320;50.256;19.026;2023-06-19T00:11:13;16.80;99.90
18388;DHT22;9320;50.256;19.026;2023-06-19T00:13:41;16.70;99.90
18388;DHT22;9320;50.256;19.026;2023-06-19T00:16:10;16.70;99.90
18388;DHT22;9320;50.256;19.026;2023-06-19T00:18:39;16.70;99.90
18388;DHT22;9320;50.256;19.026;2023-06-19T00:21:08;16.60;99.90
18388;DHT22;9320;50.256;19.026;2023-06-19T00:23:36;16.50;99.90
18388;DHT22;9320;50.256;19.026;2023-06-19T00:26:04;16.50;99.90
18388;DHT22;9320;50.256;19.026;2023-06-19T00:28:33;16.40;99.90
18388;DHT22;9320;50.256;19.026;2023-06-19T00:31:05;16.40;99.90
18388;DHT22;9320;50.256;19.026;2023-06-19T00:33:34;16.40;99.90
18388;DHT22;9320;50.256;19.026;2023-06-19T00:36:09;16.40;99.90
18388;DHT22;9320;50.256;19.026;2023-06-19T00:38:37;16.40;99.90
18388;DHT22;9320;50.256;19.026;2023-06-19T00:41:05;16.30;99.90
18388;DHT22;9320;50.256;19.026;2023-06-19T00:43:34;16.30;99.90
18388;DHT22;9320;50.256;19.026;2023-06-19T00:46:03;16.30;99.90
18388;DHT22;9320;50.256;19.026;2023-06-19T00:48:32;16.30;99.90
18388;DHT22;9320;50.256;19.026;2023-06-19T00:51:03;16.20;99.90
18388;DHT22;9320;50.256;19.026;2023-06-19T00:53:32;16.30;99.90
18388;DHT22;9320;50.256;19.026;2023-06-19T00:56:01;16.30;99.90
18388;DHT22;9320;50.256;19.026;2023-06-19T00:58:31;16.30;99.90
18388;DHT22;9320;50.256;19.026;2023-06-19T01:00:59;16.30;99.90
18388;DHT22;9320;50.256;19.026;2023-06-19T01:03:34;16.30;99.90
18388;DHT22;9320;50.256;19.026;2023-06-19T01:06:09;16.20;99.90
18388;DHT22;9320;50.256;19.026;2023-06-19T01:08:45;16.30;99.90
18388;DHT22;9320;50.256;19.026;2023-06-19T01:11:20;16.20;99.90
18388;DHT22;9320;50.256;19.026;2023-06-19T01:13:57;16.30;99.90
18388;DHT22;9320;50.256;19.026;2023-06-19T01:16:27;16.20;99.90
18388;DHT22;9320;50.256;19.026;2023-06-19T01:18:57;16.20;99.90
18388;DHT22;9320;50.256;19.026;2023-06-19T01:21:26;16.20;99.90
18388;DHT22;9320;50.256;19.026;2023-06-19T01:23:56;16.10;99.90
18388;DHT22;9320;50.256;19.026;2023-06-19T01:26:24;16.00;99.90
18388;DHT22;9320;50.256;19.026;2023-06-19T01:28:55;16.00;99.90
18388;DHT22;9320;50.256;19.026;2023-06-19T01:31:28;16.00;99.90
18388;DHT22;9320;50.256;19.026;2023-06-19T01:34:01;16.00;99.90
18388;DHT22;9320;50.256;19.026;2023-06-19T01:36:32;15.90;99.90
18388;DHT22;9320;50.256;19.026;2023-06-19T01:39:02;16.00;99.90
18388;DHT22;9320;50.256;19.026;2023-06-19T01:41:31;16.00;99.90
18388;DHT22;9320;50.256;19.026;2023-06-19T01:44:00;16.10;99.90
18388;DHT22;9320;50.256;19.026;2023-06-19T01:46:29;16.00;99.90
18388;DHT22;9320;50.256;19.026;2023-06-19T01:48:57;16.00;99.90
18388;DHT22;9320;50.256;19.026;2023-06-19T01:51:26;16.00;99.90
18388;DHT22;9320;50.256;19.026;2023-06-19T01:53:54;16.10;99.90
18388;DHT22;9320;50.256;19.026;2023-06-19T01:56:23;16.00;99.90
18388;DHT22;9320;50.256;19.026;2023-06-19T01:58:51;16.00;99.90
18388;DHT22;9320;50.256;19.026;2023-06-19T02:01:22;16.00;99.90
18388;DHT22;9320;50.256;19.026;2023-06-19T02:03:50;16.00;99.90
18388;DHT22;9320;50.256;19.026;2023-06-19T02:06:18;15.90;99.90
18388;DHT22;9320;50.256;19.026;2023-06-19T02:08:48;16.00;99.90
18388;DHT22;9320;50.256;19.026;2023-06-19T02:11:16;15.90;99.90
18388;DHT22;9320;50.256;19.026;2023-06-19T02:13:45;15.90;99.90
18388;DHT22;9320;50.256;19.026;2023-06-19T02:16:13;15.90;99.90
18388;DHT22;9320;50.256;19.026;2023-06-19T02:18:41;15.80;99.90
18388;DHT22;9320;50.256;19.026;2023-06-19T02:21:09;15.70;99.90
18388;DHT22;9320;50.256;19.026;2023-06-19T02:23:37;15.70;99.90
18388;DHT22;9320;50.256;19.026;2023-06-19T02:26:05;15.70;99.90
18388;DHT22;9320;50.256;19.026;2023-06-19T02:28:33;15.70;99.90
18388;DHT22;9320;50.256;19.026;2023-06-19T02:31:03;15.70;99.90
18388;DHT22;9320;50.256;19.026;2023-06-19T02:33:31;15.70;99.90
18388;DHT22;9320;50.256;19.026;2023-06-19T02:35:59;15.70;99.90
18388;DHT22;9320;50.256;19.026;2023-06-19T02:38:28;15.80;99.90
18388;DHT22;9320;50.256;19.026;2023-06-19T02:40:57;15.70;99.90
18388;DHT22;9320;50.256;19.026;2023-06-19T02:43:27;15.70;99.90
18388;DHT22;9320;50.256;19.026;2023-06-19T02:45:55;15.70;99.90
18388;DHT22;9320;50.256;19.026;2023-06-19T02:48:25;15.60;99.90
18388;DHT22;9320;50.256;19.026;2023-06-19T02:50:53;15.60;99.90
18388;DHT22;9320;50.256;19.026;2023-06-19T02:53:21;15.60;99.90
18388;DHT22;9320;50.256;19.026;2023-06-19T02:55:49;15.70;99.90
18388;DHT22;9320;50.256;19.026;2023-06-19T02:58:17;15.70;99.90
18388;DHT22;9320;50.256;19.026;2023-06-19T03:00:45;15.80;99.90
18388;DHT22;9320;50.256;19.026;2023-06-19T03:03:13;15.80;99.90
18388;DHT22;9320;50.256;19.026;2023-06-19T03:05:43;15.80;99.90
18388;DHT22;9320;50.256;19.026;2023-06-19T03:08:11;15.90;99.90
18388;DHT22;9320;50.256;19.026;2023-06-19T03:10:39;16.00;99.90
18388;DHT22;9320;50.256;19.026;2023-06-19T03:13:07;16.00;99.90
18388;DHT22;9320;50.256;19.026;2023-06-19T03:15:35;16.00;99.90
18388;DHT22;9320;50.256;19.026;2023-06-19T03:18:03;15.90;99.90
18388;DHT22;9320;50.256;19.026;2023-06-19T03:20:33;16.00;99.90
18388;DHT22;9320;50.256;19.026;2023-06-19T03:23:03;16.00;99.90
18388;DHT22;9320;50.256;19.026;2023-06-19T03:25:31;15.80;99.90
18388;DHT22;9320;50.256;19.026;2023-06-19T03:28:02;15.80;99.90
18388;DHT22;9320;50.256;19.026;2023-06-19T03:30:31;15.70;99.90
18388;DHT22;9320;50.256;19.026;2023-06-19T03:32:59;15.60;99.90
18388;DHT22;9320;50.256;19.026;2023-06-19T03:35:27;15.70;99.90
18388;DHT22;9320;50.256;19.026;2023-06-19T03:37:55;15.60;99.90
18388;DHT22;9320;50.256;19.026;2023-06-19T03:40:24;15.50;99.90
18388;DHT22;9320;50.256;19.026;2023-06-19T03:42:55;15.60;99.90
18388;DHT22;9320;50.256;19.026;2023-06-19T03:45:23;15.70;99.90
18388;DHT22;9320;50.256;19.026;2023-06-19T03:47:51;15.80;99.90
18388;DHT22;9320;50.256;19.026;2023-06-19T03:50:19;15.80;99.90
18388;DHT22;9320;50.256;19.026;2023-06-19T03:52:50;15.80;99.90
18388;DHT22;9320;50.256;19.026;2023-06-19T03:55:18;15.80;99.90
18388;DHT22;9320;50.256;19.026;2023-06-19T03:57:48;15.70;99.90
18388;DHT22;9320;50.256;19.026;2023-06-19T04:00:16;15.80;99.90
18388;DHT22;9320;50.256;19.026;2023-06-19T04:02:45;15.80;99.90
18388;DHT22;9320;50.256;19.026;2023-06-19T04:05:14;15.90;99.90
18388;DHT22;9320;50.256;19.026;2023-06-19T04:07:42;15.90;99.90
18388;DHT22;9320;50.256;19.026;2023-06-19T04:10:11;16.00;99.90
18388;DHT22;9320;50.256;19.026;2023-06-19T04:12:39;16.00;99.90
18388;DHT22;9320;50.256;19.026;2023-06-19T04:15:10;16.00;99.90
18388;DHT22;9320;50.256;19.026;2023-06-19T04:17:38;16.00;99.90
18388;DHT22;9320;50.256;19.026;2023-06-19T04:20:07;16.00;99.90
18388;DHT22;9320;50.256;19.026;2023-06-19T04:22:38;16.00;99.90
18388;DHT22;9320;50.256;19.026;2023-06-19T04:25:07;15.80;99.90
18388;DHT22;9320;50.256;19.026;2023-06-19T04:27:36;16.10;99.90
18388;DHT22;9320;50.256;19.026;2023-06-19T04:30:05;16.10;99.90
18388;DHT22;9320;50.256;19.026;2023-06-19T04:32:35;16.20;99.90
18388;DHT22;9320;50.256;19.026;2023-06-19T04:35:08;16.40;99.90
18388;DHT22;9320;50.256;19.026;2023-06-19T04:37:37;16.40;99.90
18388;DHT22;9320;50.256;19.026;2023-06-19T04:40:06;16.30;99.90
18388;DHT22;9320;50.256;19.026;2023-06-19T04:42:35;16.40;99.90
18388;DHT22;9320;50.256;19.026;2023-06-19T04:45:06;16.50;99.90
18388;DHT22;9320;50.256;19.026;2023-06-19T04:47:37;16.60;99.90
18388;DHT22;9320;50.256;19.026;2023-06-19T04:50:18;16.60;99.90
18388;DHT22;9320;50.256;19.026;2023-06-19T04:52:47;16.90;99.90
18388;DHT22;9320;50.256;19.026;2023-06-19T04:55:18;16.80;99.90
18388;DHT22;9320;50.256;19.026;2023-06-19T04:57:46;16.90;99.90
18388;DHT22;9320;50.256;19.026;2023-06-19T05:00:15;17.00;99.90
18388;DHT22;9320;50.256;19.026;2023-06-19T05:02:47;17.10;99.90
18388;DHT22;9320;50.256;19.026;2023-06-19T05:05:16;17.10;99.90
18388;DHT22;9320;50.256;19.026;2023-06-19T05:07:47;17.20;99.90
18388;DHT22;9320;50.256;19.026;2023-06-19T05:10:15;17.30;99.90
18388;DHT22;9320;50.256;19.026;2023-06-19T05:12:43;17.30;99.90
18388;DHT22;9320;50.256;19.026;2023-06-19T05:15:11;17.40;99.90
18388;DHT22;9320;50.256;19.026;2023-06-19T05:17:39;17.50;99.90
18388;DHT22;9320;50.256;19.026;2023-06-19T05:20:10;17.70;99.90
18388;DHT22;9320;50.256;19.026;2023-06-19T05:22:39;17.80;99.90
18388;DHT22;9320;50.256;19.026;2023-06-19T05:25:08;17.80;99.90
18388;DHT22;9320;50.256;19.026;2023-06-19T05:27:36;17.90;99.90
18388;DHT22;9320;50.256;19.026;2023-06-19T05:30:05;17.90;99.90
18388;DHT22;9320;50.256;19.026;2023-06-19T05:32:33;18.00;99.90
18388;DHT22;9320;50.256;19.026;2023-06-19T05:35:01;18.10;99.90
18388;DHT22;9320;50.256;19.026;2023-06-19T05:37:31;18.30;99.90
18388;DHT22;9320;50.256;19.026;2023-06-19T05:39:59;18.30;99.90
18388;DHT22;9320;50.256;19.026;2023-06-19T05:42:27;18.40;99.90
18388;DHT22;9320;50.256;19.026;2023-06-19T05:44:55;18.60;99.90
18388;DHT22;9320;50.256;19.026;2023-06-19T05:47:23;18.70;99.90
18388;DHT22;9320;50.256;19.026;2023-06-19T05:49:52;18.80;99.90
18388;DHT22;9320;50.256;19.026;2023-06-19T05:52:21;18.90;99.90
18388;DHT22;9320;50.256;19.026;2023-06-19T05:54:50;18.90;99.90
18388;DHT22;9320;50.256;19.026;2023-06-19T05:57:19;19.00;99.90
18388;DHT22;9320;50.256;19.026;2023-06-19T05:59:48;19.00;99.90
18388;DHT22;9320;50.256;19.026;2023-06-19T06:02:16;19.10;99.90
18388;DHT22;9320;50.256;19.026;2023-06-19T06:04:45;19.20;99.90
18388;DHT22;9320;50.256;19.026;2023-06-19T06:07:13;19.30;99.90
18388;DHT22;9320;50.256;19.026;2023-06-19T06:09:41;19.30;99.90
18388;DHT22;9320;50.256;19.026;2023-06-19T06:12:11;19.50;99.90
18388;DHT22;9320;50.256;19.026;2023-06-19T06:14:40;19.60;99.90
18388;DHT22;9320;50.256;19.026;2023-06-19T06:17:09;19.70;99.90
18388;DHT22;9320;50.256;19.026;2023-06-19T06:19:37;19.80;99.90
18388;DHT22;9320;50.256;19.026;2023-06-19T06:22:06;19.90;99.90
18388;DHT22;9320;50.256;19.026;2023-06-19T06:24:35;20.00;99.90
18388;DHT22;9320;50.256;19.026;2023-06-19T06:27:05;20.10;99.90
18388;DHT22;9320;50.256;19.026;2023-06-19T06:29:35;20.20;99.90
18388;DHT22;9320;50.256;19.026;2023-06-19T06:32:05;20.30;99.90
18388;DHT22;9320;50.256;19.026;2023-06-19T06:34:34;20.40;99.90
18388;DHT22;9320;50.256;19.026;2023-06-19T06:37:03;20.50;99.90
18388;DHT22;9320;50.256;19.026;2023-06-19T06:39:32;20.60;99.90
18388;DHT22;9320;50.256;19.026;2023-06-19T06:42:01;20.70;99.90
18388;DHT22;9320;50.256;19.026;2023-06-19T06:44:29;20.70;99.90
18388;DHT22;9320;50.256;19.026;2023-06-19T06:46:59;20.90;99.90
18388;DHT22;9320;50.256;19.026;2023-06-19T06:49:27;21.00;99.90
18388;DHT22;9320;50.256;19.026;2023-06-19T06:51:55;21.10;99.90
18388;DHT22;9320;50.256;19.026;2023-06-19T06:54:24;21.20;99.90
18388;DHT22;9320;50.256;19.026;2023-06-19T06:56:52;21.20;99.60
18388;DHT22;9320;50.256;19.026;2023-06-19T06:59:23;21.20;99.10
18388;DHT22;9320;50.256;19.026;2023-06-19T07:01:51;21.30;98.70
18388;DHT22;9320;50.256;19.026;2023-06-19T07:04:22;21.40;97.50
18388;DHT22;9320;50.256;19.026;2023-06-19T07:06:51;21.50;96.10
18388;DHT22;9320;50.256;19.026;2023-06-19T07:09:19;21.40;96.00
18388;DHT22;9320;50.256;19.026;2023-06-19T07:11:48;21.50;95.40
18388;DHT22;9320;50.256;19.026;2023-06-19T07:14:20;21.70;94.90
18388;DHT22;9320;50.256;19.026;2023-06-19T07:16:49;21.80;94.50
18388;DHT22;9320;50.256;19.026;2023-06-19T07:19:17;21.90;93.70
18388;DHT22;9320;50.256;19.026;2023-06-19T07:21:49;22.00;93.70
18388;DHT22;9320;50.256;19.026;2023-06-19T07:24:19;22.00;93.10
18388;DHT22;9320;50.256;19.026;2023-06-19T07:26:47;22.10;92.30
18388;DHT22;9320;50.256;19.026;2023-06-19T07:29:15;22.20;91.80
18388;DHT22;9320;50.256;19.026;2023-06-19T07:31:43;22.30;91.50
18388;DHT22;9320;50.256;19.026;2023-06-19T07:34:11;22.50;90.90
18388;DHT22;9320;50.256;19.026;2023-06-19T07:36:39;22.80;90.90
18388;DHT22;9320;50.256;19.026;2023-06-19T07:39:10;23.60;90.60
18388;DHT22;9320;50.256;19.026;2023-06-19T07:41:38;24.70;85.20
18388;DHT22;9320;50.256;19.026;2023-06-19T07:44:06;26.10;79.50
18388;DHT22;9320;50.256;19.026;2023-06-19T07:46:34;27.60;70.70
18388;DHT22;9320;50.256;19.026;2023-06-19T07:49:03;29.40;66.20
18388;DHT22;9320;50.256;19.026;2023-06-19T07:51:31;31.50;58.10
18388;DHT22;9320;50.256;19.026;2023-06-19T07:53:59;32.80;56.20
18388;DHT22;9320;50.256;19.026;2023-06-19T07:56:28;34.20;50.40
18388;DHT22;9320;50.256;19.026;2023-06-19T07:58:56;35.10;48.20
18388;DHT22;9320;50.256;19.026;2023-06-19T08:01:24;34.50;44.90
18388;DHT22;9320;50.256;19.026;2023-06-19T08:03:53;34.20;45.10
18388;DHT22;9320;50.256;19.026;2023-06-19T08:06:21;34.00;44.80
18388;DHT22;9320;50.256;19.026;2023-06-19T08:08:49;32.90;45.60
18388;DHT22;9320;50.256;19.026;2023-06-19T08:11:18;32.80;45.20
18388;DHT22;9320;50.256;19.026;2023-06-19T08:13:47;31.70;46.70
18388;DHT22;9320;50.256;19.026;2023-06-19T08:16:15;31.00;49.60
18388;DHT22;9320;50.256;19.026;2023-06-19T08:18:44;30.60;50.90
18388;DHT22;9320;50.256;19.026;2023-06-19T08:21:13;31.70;49.40
18388;DHT22;9320;50.256;19.026;2023-06-19T08:23:41;32.90;48.20
18388;DHT22;9320;50.256;19.026;2023-06-19T08:26:10;33.80;46.10
18388;DHT22;9320;50.256;19.026;2023-06-19T08:28:39;33.90;46.70
18388;DHT22;9320;50.256;19.026;2023-06-19T08:31:09;32.50;46.20
18388;DHT22;9320;50.256;19.026;2023-06-19T08:33:38;31.20;48.80
18388;DHT22;9320;50.256;19.026;2023-06-19T08:36:06;31.70;49.50
18388;DHT22;9320;50.256;19.026;2023-06-19T08:38:34;33.10;46.00
18388;DHT22;9320;50.256;19.026;2023-06-19T08:41:02;34.50;44.40
18388;DHT22;9320;50.256;19.026;2023-06-19T08:43:30;34.20;44.10
18388;DHT22;9320;50.256;19.026;2023-06-19T08:46:09;34.40;42.90
18388;DHT22;9320;50.256;19.026;2023-06-19T08:48:39;34.50;46.20
18388;DHT22;9320;50.256;19.026;2023-06-19T08:51:09;37.10;40.50
18388;DHT22;9320;50.256;19.026;2023-06-19T08:53:45;37.90;38.30
18388;DHT22;9320;50.256;19.026;2023-06-19T08:56:13;36.30;38.60
18388;DHT22;9320;50.256;19.026;2023-06-19T08:58:42;34.00;42.80
18388;DHT22;9320;50.256;19.026;2023-06-19T09:01:10;32.50;45.20
18388;DHT22;9320;50.256;19.026;2023-06-19T09:03:41;30.80;46.90
18388;DHT22;9320;50.256;19.026;2023-06-19T09:06:11;30.00;49.00
18388;DHT22;9320;50.256;19.026;2023-06-19T09:08:39;30.00;50.20
18388;DHT22;9320;50.256;19.026;2023-06-19T09:11:07;29.90;50.50
18388;DHT22;9320;50.256;19.026;2023-06-19T09:13:36;30.00;50.00
18388;DHT22;9320;50.256;19.026;2023-06-19T09:16:06;29.60;49.70
18388;DHT22;9320;50.256;19.026;2023-06-19T09:18:44;29.00;51.10
18388;DHT22;9320;50.256;19.026;2023-06-19T09:21:15;27.80;52.80
18388;DHT22;9320;50.256;19.026;2023-06-19T09:23:45;30.60;51.70
18388;DHT22;9320;50.256;19.026;2023-06-19T09:26:14;35.60;44.60
18388;DHT22;9320;50.256;19.026;2023-06-19T09:28:43;36.90;37.90
18388;DHT22;9320;50.256;19.026;2023-06-19T09:31:11;35.60;38.80
18388;DHT22;9320;50.256;19.026;2023-06-19T09:33:41;34.80;40.30
18388;DHT22;9320;50.256;19.026;2023-06-19T09:36:12;33.60;41.80
18388;DHT22;9320;50.256;19.026;2023-06-19T09:38:40;35.30;44.60
18388;DHT22;9320;50.256;19.026;2023-06-19T09:41:08;39.50;38.60
18388;DHT22;9320;50.256;19.026;2023-06-19T09:43:38;42.70;32.00
18388;DHT22;9320;50.256;19.026;2023-06-19T09:46:07;44.20;30.10
18388;DHT22;9320;50.256;19.026;2023-06-19T09:48:41;44.50;28.40
18388;DHT22;9320;50.256;19.026;2023-06-19T09:51:16;43.00;28.60
18388;DHT22;9320;50.256;19.026;2023-06-19T09:53:45;44.40;28.60
18388;DHT22;9320;50.256;19.026;2023-06-19T09:56:14;44.10;28.80
18388;DHT22;9320;50.256;19.026;2023-06-19T09:58:43;42.30;29.60
18388;DHT22;9320;50.256;19.026;2023-06-19T10:01:13;39.10;31.60
18388;DHT22;9320;50.256;19.026;2023-06-19T10:03:41;36.60;35.20
18388;DHT22;9320;50.256;19.026;2023-06-19T10:06:15;35.50;36.60
18388;DHT22;9320;50.256;19.026;2023-06-19T10:08:45;35.80;35.30
18388;DHT22;9320;50.256;19.026;2023-06-19T10:11:13;34.40;37.10
18388;DHT22;9320;50.256;19.026;2023-06-19T10:13:42;33.40;39.10
18388;DHT22;9320;50.256;19.026;2023-06-19T10:16:19;36.70;36.30
18388;DHT22;9320;50.256;19.026;2023-06-19T10:18:48;40.10;32.20
18388;DHT22;9320;50.256;19.026;2023-06-19T10:21:18;39.60;30.40
18388;DHT22;9320;50.256;19.026;2023-06-19T10:23:54;36.30;33.70
18388;DHT22;9320;50.256;19.026;2023-06-19T10:26:31;34.60;37.20
18388;DHT22;9320;50.256;19.026;2023-06-19T10:29:00;37.50;34.90
18388;DHT22;9320;50.256;19.026;2023-06-19T10:31:28;37.90;34.90
18388;DHT22;9320;50.256;19.026;2023-06-19T10:33:56;37.00;34.40
18388;DHT22;9320;50.256;19.026;2023-06-19T10:36:26;35.70;35.80
18388;DHT22;9320;50.256;19.026;2023-06-19T10:38:54;34.30;36.70
18388;DHT22;9320;50.256;19.026;2023-06-19T10:41:23;33.10;38.90
18388;DHT22;9320;50.256;19.026;2023-06-19T10:43:53;32.20;39.90
18388;DHT22;9320;50.256;19.026;2023-06-19T10:46:22;31.30;41.00
18388;DHT22;9320;50.256;19.026;2023-06-19T10:48:51;30.70;42.40
18388;DHT22;9320;50.256;19.026;2023-06-19T10:51:23;30.60;43.90
18388;DHT22;9320;50.256;19.026;2023-06-19T10:53:55;30.40;43.80
18388;DHT22;9320;50.256;19.026;2023-06-19T10:56:24;30.20;44.00
18388;DHT22;9320;50.256;19.026;2023-06-19T10:59:00;30.20;44.80
18388;DHT22;9320;50.256;19.026;2023-06-19T11:01:36;30.20;44.40
18388;DHT22;9320;50.256;19.026;2023-06-19T11:04:05;30.00;45.40
18388;DHT22;9320;50.256;19.026;2023-06-19T11:06:34;30.00;44.80
18388;DHT22;9320;50.256;19.026;2023-06-19T11:09:04;29.80;44.80
18388;DHT22;9320;50.256;19.026;2023-06-19T11:11:37;29.90;45.10
18388;DHT22;9320;50.256;19.026;2023-06-19T11:14:05;30.00;44.60
18388;DHT22;9320;50.256;19.026;2023-06-19T11:16:34;29.90;44.50
18388;DHT22;9320;50.256;19.026;2023-06-19T11:19:02;29.70;44.60
18388;DHT22;9320;50.256;19.026;2023-06-19T11:21:31;29.70;44.90
18388;DHT22;9320;50.256;19.026;2023-06-19T11:24:11;29.50;44.50
18388;DHT22;9320;50.256;19.026;2023-06-19T11:26:40;29.30;44.70
18388;DHT22;9320;50.256;19.026;2023-06-19T11:29:14;29.20;45.20
18388;DHT22;9320;50.256;19.026;2023-06-19T11:31:43;28.90;45.30
18388;DHT22;9320;50.256;19.026;2023-06-19T11:34:11;28.20;46.40
18388;DHT22;9320;50.256;19.026;2023-06-19T11:36:39;28.10;46.80
18388;DHT22;9320;50.256;19.026;2023-06-19T11:39:12;28.30;47.10
18388;DHT22;9320;50.256;19.026;2023-06-19T11:41:43;28.30;46.40
18388;DHT22;9320;50.256;19.026;2023-06-19T11:44:12;28.00;47.00
18388;DHT22;9320;50.256;19.026;2023-06-19T11:46:40;27.70;47.40
18388;DHT22;9320;50.256;19.026;2023-06-19T11:49:12;27.60;47.80
18388;DHT22;9320;50.256;19.026;2023-06-19T11:51:40;27.50;48.20
18388;DHT22;9320;50.256;19.026;2023-06-19T11:54:11;27.70;48.00
18388;DHT22;9320;50.256;19.026;2023-06-19T11:56:41;28.00;47.90
18388;DHT22;9320;50.256;19.026;2023-06-19T11:59:09;28.20;47.00
18388;DHT22;9320;50.256;19.026;2023-06-19T12:01:38;28.50;46.70
18388;DHT22;9320;50.256;19.026;2023-06-19T12:04:06;28.60;46.30
18388;DHT22;9320;50.256;19.026;2023-06-19T12:06:35;28.50;45.10
18388;DHT22;9320;50.256;19.026;2023-06-19T12:09:04;28.40;44.30
18388;DHT22;9320;50.256;19.026;2023-06-19T12:11:34;28.30;44.70
18388;DHT22;9320;50.256;19.026;2023-06-19T12:14:02;28.30;44.70
18388;DHT22;9320;50.256;19.026;2023-06-19T12:16:30;28.40;45.40
18388;DHT22;9320;50.256;19.026;2023-06-19T12:18:58;28.10;45.10
18388;DHT22;9320;50.256;19.026;2023-06-19T12:21:27;28.10;45.40
18388;DHT22;9320;50.256;19.026;2023-06-19T12:24:03;28.30;44.70
18388;DHT22;9320;50.256;19.026;2023-06-19T12:26:33;28.30;44.10
18388;DHT22;9320;50.256;19.026;2023-06-19T12:29:04;28.40;43.40
18388;DHT22;9320;50.256;19.026;2023-06-19T12:31:33;28.60;41.80
18388;DHT22;9320;50.256;19.026;2023-06-19T12:34:03;28.60;41.70
18388;DHT22;9320;50.256;19.026;2023-06-19T12:36:51;28.60;42.50
18388;DHT22;9320;50.256;19.026;2023-06-19T12:39:19;28.60;42.40
18388;DHT22;9320;50.256;19.026;2023-06-19T12:41:48;28.60;42.30
18388;DHT22;9320;50.256;19.026;2023-06-19T12:44:16;28.60;42.30
18388;DHT22;9320;50.256;19.026;2023-06-19T12:46:44;28.40;42.40
18388;DHT22;9320;50.256;19.026;2023-06-19T12:49:12;28.40;43.20
18388;DHT22;9320;50.256;19.026;2023-06-19T12:51:40;28.40;43.60
18388;DHT22;9320;50.256;19.026;2023-06-19T12:54:09;28.60;43.20
18388;DHT22;9320;50.256;19.026;2023-06-19T12:56:37;28.50;42.80
18388;DHT22;9320;50.256;19.026;2023-06-19T12:59:06;28.60;42.90
18388;DHT22;9320;50.256;19.026;2023-06-19T13:01:34;28.60;43.30
18388;DHT22;9320;50.256;19.026;2023-06-19T13:04:02;28.60;43.60
18388;DHT22;9320;50.256;19.026;2023-06-19T13:06:30;28.60;43.70
18388;DHT22;9320;50.256;19.026;2023-06-19T13:08:58;28.80;42.80
18388;DHT22;9320;50.256;19.026;2023-06-19T13:11:30;28.80;42.60
18388;DHT22;9320;50.256;19.026;2023-06-19T13:13:58;28.90;42.40
18388;DHT22;9320;50.256;19.026;2023-06-19T13:16:27;28.80;42.90
18388;DHT22;9320;50.256;19.026;2023-06-19T13:19:11;29.00;42.50
18388;DHT22;9320;50.256;19.026;2023-06-19T13:21:40;28.90;41.50
18388;DHT22;9320;50.256;19.026;2023-06-19T13:24:09;28.70;42.50
18388;DHT22;9320;50.256;19.026;2023-06-19T13:26:37;28.70;43.50
18388;DHT22;9320;50.256;19.026;2023-06-19T13:29:05;28.90;43.40
18388;DHT22;9320;50.256;19.026;2023-06-19T13:31:34;29.00;43.60
18388;DHT22;9320;50.256;19.026;2023-06-19T13:34:03;29.20;42.10
18388;DHT22;9320;50.256;19.026;2023-06-19T13:36:31;29.10;42.20
18388;DHT22;9320;50.256;19.026;2023-06-19T13:38:59;29.00;41.90
18388;DHT22;9320;50.256;19.026;2023-06-19T13:41:27;29.00;41.40
18388;DHT22;9320;50.256;19.026;2023-06-19T13:43:57;28.70;41.90
18388;DHT22;9320;50.256;19.026;2023-06-19T13:46:27;28.60;42.50
18388;DHT22;9320;50.256;19.026;2023-06-19T13:48:57;28.30;42.30
18388;DHT22;9320;50.256;19.026;2023-06-19T13:51:25;28.30;42.10
18388;DHT22;9320;50.256;19.026;2023-06-19T13:53:53;28.20;42.60
18388;DHT22;9320;50.256;19.026;2023-06-19T13:56:21;28.10;42.90
18388;DHT22;9320;50.256;19.026;2023-06-19T13:58:50;28.20;42.80
18388;DHT22;9320;50.256;19.026;2023-06-19T14:01:18;28.30;41.30
18388;DHT22;9320;50.256;19.026;2023-06-19T14:03:46;28.30;41.40
18388;DHT22;9320;50.256;19.026;2023-06-19T14:06:16;28.30;41.40
18388;DHT22;9320;50.256;19.026;2023-06-19T14:08:44;28.30;41.30
18388;DHT22;9320;50.256;19.026;2023-06-19T14:11:12;28.30;41.20
18388;DHT22;9320;50.256;19.026;2023-06-19T14:13:40;28.30;41.40
18388;DHT22;9320;50.256;19.026;2023-06-19T14:16:08;28.30;41.20
18388;DHT22;9320;50.256;19.026;2023-06-19T14:18:36;28.40;41.40
18388;DHT22;9320;50.256;19.026;2023-06-19T14:21:04;28.40;41.50
18388;DHT22;9320;50.256;19.026;2023-06-19T14:23:34;28.40;41.60
18388;DHT22;9320;50.256;19.026;2023-06-19T14:26:07;28.40;41.40
18388;DHT22;9320;50.256;19.026;2023-06-19T14:28:37;28.40;41.80
18388;DHT22;9320;50.256;19.026;2023-06-19T14:31:06;28.30;42.10
18388;DHT22;9320;50.256;19.026;2023-06-19T14:33:34;28.30;42.10
18388;DHT22;9320;50.256;19.026;2023-06-19T14:36:04;28.30;42.80
18388;DHT22;9320;50.256;19.026;2023-06-19T14:38:33;28.30;43.20
18388;DHT22;9320;50.256;19.026;2023-06-19T14:41:01;28.20;42.50
18388;DHT22;9320;50.256;19.026;2023-06-19T14:43:30;28.10;42.90
18388;DHT22;9320;50.256;19.026;2023-06-19T14:46:00;28.30;42.30
18388;DHT22;9320;50.256;19.026;2023-06-19T14:48:28;28.30;42.50
18388;DHT22;9320;50.256;19.026;2023-06-19T14:50:57;28.50;43.00
18388;DHT22;9320;50.256;19.026;2023-06-19T14:53:25;28.60;42.30
18388;DHT22;9320;50.256;19.026;2023-06-19T14:55:54;28.50;42.40
18388;DHT22;9320;50.256;19.026;2023-06-19T14:58:22;28.60;42.70
18388;DHT22;9320;50.256;19.026;2023-06-19T15:00:53;28.50;42.60
18388;DHT22;9320;50.256;19.026;2023-06-19T15:03:21;28.40;42.80
18388;DHT22;9320;50.256;19.026;2023-06-19T15:05:50;28.40;42.60
18388;DHT22;9320;50.256;19.026;2023-06-19T15:08:18;28.40;42.30
18388;DHT22;9320;50.256;19.026;2023-06-19T15:10:48;28.40;42.60
18388;DHT22;9320;50.256;19.026;2023-06-19T15:13:18;28.40;42.50
18388;DHT22;9320;50.256;19.026;2023-06-19T15:15:46;28.40;42.50
18388;DHT22;9320;50.256;19.026;2023-06-19T15:18:14;28.30;42.40
18388;DHT22;9320;50.256;19.026;2023-06-19T15:20:43;28.20;42.70
18388;DHT22;9320;50.256;19.026;2023-06-19T15:23:11;28.10;42.90
18388;DHT22;9320;50.256;19.026;2023-06-19T15:25:39;28.10;43.50
18388;DHT22;9320;50.256;19.026;2023-06-19T15:28:07;28.10;43.40
18388;DHT22;9320;50.256;19.026;2023-06-19T15:30:36;28.10;43.70
18388;DHT22;9320;50.256;19.026;2023-06-19T15:33:04;28.20;44.80
18388;DHT22;9320;50.256;19.026;2023-06-19T15:35:32;28.10;45.30
18388;DHT22;9320;50.256;19.026;2023-06-19T15:38:00;28.30;45.50
18388;DHT22;9320;50.256;19.026;2023-06-19T15:40:29;28.40;43.90
18388;DHT22;9320;50.256;19.026;2023-06-19T15:42:57;28.50;42.70